createdAt,value
2018-05-07T00:01:55.559Z,14.13
2018-05-07T00:04:23.129Z,14.16
2018-05-07T00:06:50.611Z,14.13
2018-05-07T00:09:18.110Z,14.12
2018-05-07T00:11:45.788Z,14.09
2018-05-07T00:14:13.317Z,14.02
2018-05-07T00:16:40.795Z,13.98
2018-05-07T00:19:08.353Z,13.88
2018-05-07T00:21:35.845Z,13.82
2018-05-07T00:24:03.405Z,13.81
2018-05-07T00:26:31.069Z,13.78
2018-05-07T00:28:58.571Z,13.74
2018-05-07T00:31:26.066Z,13.69
2018-05-07T00:33:53.550Z,13.64
2018-05-07T00:36:21.022Z,13.65
2018-05-07T00:38:48.500Z,13.62
2018-05-07T00:41:16.005Z,13.53
2018-05-07T00:43:43.486Z,13.50
2018-05-07T00:46:10.960Z,13.48
2018-05-07T00:48:38.542Z,13.44
2018-05-07T00:51:06.044Z,13.40
2018-05-07T00:53:33.563Z,13.37
2018-05-07T00:56:01.029Z,13.37
2018-05-07T00:58:28.523Z,13.35
2018-05-07T01:00:56.139Z,13.31
2018-05-07T01:03:23.668Z,13.33
2018-05-07T01:05:51.190Z,13.30
2018-05-07T01:08:18.713Z,13.26
2018-05-07T01:10:46.249Z,13.24
2018-05-07T01:13:13.754Z,13.27
2018-05-07T01:15:41.294Z,13.29
2018-05-07T01:18:08.781Z,13.30
2018-05-07T01:20:36.318Z,13.31
2018-05-07T01:23:03.829Z,13.32
2018-05-07T01:25:31.321Z,13.29
2018-05-07T01:27:58.834Z,13.28
2018-05-07T01:30:26.342Z,13.29
2018-05-07T01:32:53.887Z,13.22
2018-05-07T01:35:21.360Z,13.17
2018-05-07T01:37:48.805Z,13.05
2018-05-07T01:40:16.312Z,12.97
2018-05-07T01:42:43.816Z,12.91
2018-05-07T01:45:11.276Z,12.85
2018-05-07T01:47:38.736Z,12.76
2018-05-07T01:50:06.304Z,12.73
2018-05-07T01:52:33.786Z,12.68
2018-05-07T01:55:01.236Z,12.64
2018-05-07T01:57:28.743Z,12.57
2018-05-07T01:59:56.224Z,12.59
2018-05-07T02:02:23.767Z,12.55
2018-05-07T02:04:52.233Z,12.50
2018-05-07T02:07:19.814Z,12.48
2018-05-07T02:09:48.253Z,12.49
2018-05-07T02:12:15.717Z,12.48
2018-05-07T02:14:43.206Z,12.45
2018-05-07T02:17:10.703Z,12.39
2018-05-07T02:19:38.232Z,12.37
2018-05-07T02:22:05.725Z,12.35
2018-05-07T02:24:33.226Z,12.36
2018-05-07T02:27:00.773Z,12.33
2018-05-07T02:29:28.269Z,12.38
2018-05-07T02:31:55.803Z,12.41
2018-05-07T02:34:23.454Z,12.46
2018-05-07T02:36:50.980Z,12.48
2018-05-07T02:39:18.521Z,12.47
2018-05-07T02:41:46.055Z,12.46
2018-05-07T02:44:13.568Z,12.56
2018-05-07T02:46:41.296Z,12.41
2018-05-07T02:49:08.943Z,12.29
2018-05-07T02:51:36.482Z,12.13
2018-05-07T02:54:04.066Z,12.05
2018-05-07T02:56:32.093Z,11.99
2018-05-07T02:58:59.630Z,11.97
2018-05-07T03:01:27.184Z,11.92
2018-05-07T03:03:54.723Z,11.88
2018-05-07T03:06:22.280Z,11.86
2018-05-07T03:08:49.801Z,11.84
2018-05-07T03:11:17.337Z,11.78
2018-05-07T03:13:44.850Z,11.78
2018-05-07T03:16:12.393Z,11.83
2018-05-07T03:18:39.919Z,11.77
2018-05-07T03:21:07.419Z,11.72
2018-05-07T03:23:34.921Z,11.71
2018-05-07T03:26:02.458Z,11.70
2018-05-07T03:28:29.995Z,11.68
2018-05-07T03:30:57.573Z,11.73
2018-05-07T03:33:25.092Z,11.69
2018-05-07T03:35:52.759Z,11.60
2018-05-07T03:38:20.308Z,11.59
2018-05-07T03:40:47.847Z,11.59
2018-05-07T03:43:15.389Z,11.56
2018-05-07T03:45:42.905Z,11.57
2018-05-07T03:48:10.451Z,11.59
2018-05-07T03:50:37.982Z,11.64
2018-05-07T03:53:05.513Z,11.66
2018-05-07T03:55:33.041Z,11.66
2018-05-07T03:58:00.558Z,11.69
2018-05-07T04:00:28.100Z,11.73
2018-05-07T04:02:56.464Z,11.80
2018-05-07T04:05:24.031Z,11.83
2018-05-07T04:07:51.547Z,11.84
2018-05-07T04:10:19.055Z,11.80
2018-05-07T04:12:46.597Z,11.77
2018-05-07T04:15:14.156Z,11.77
2018-05-07T04:17:53.833Z,12.57
2018-05-07T04:20:33.068Z,13.46
2018-05-07T04:23:12.485Z,14.22
2018-05-07T04:25:40.115Z,14.93
2018-05-07T04:28:07.695Z,15.42
2018-05-07T04:30:35.254Z,15.97
2018-05-07T04:33:02.797Z,16.22
2018-05-07T04:35:30.386Z,16.41
2018-05-07T04:37:58.029Z,16.43
2018-05-07T04:40:25.557Z,16.39
2018-05-07T04:42:53.140Z,16.15
2018-05-07T04:45:20.705Z,16.20
2018-05-07T04:47:48.460Z,16.29
2018-05-07T04:50:16.015Z,16.54
2018-05-07T04:52:43.535Z,16.32
2018-05-07T04:55:11.145Z,16.24
2018-05-07T04:57:38.605Z,16.66
2018-05-07T05:00:06.239Z,16.35
2018-05-07T05:02:33.903Z,16.40
2018-05-07T05:05:01.428Z,16.93
2018-05-07T05:07:28.976Z,16.86
2018-05-07T05:09:56.535Z,16.91
2018-05-07T05:12:24.095Z,17.24
2018-05-07T05:14:51.679Z,16.88
2018-05-07T05:17:19.270Z,16.83
2018-05-07T05:19:46.892Z,16.70
2018-05-07T05:22:14.493Z,16.43
2018-05-07T05:24:42.090Z,16.39
2018-05-07T05:27:09.596Z,17.04
2018-05-07T05:29:37.124Z,17.67
2018-05-07T05:32:04.644Z,17.83
2018-05-07T05:34:32.168Z,17.92
2018-05-07T05:36:59.791Z,18.09
2018-05-07T05:39:27.365Z,18.16
2018-05-07T05:41:54.943Z,17.87
2018-05-07T05:44:22.500Z,17.93
2018-05-07T05:46:50.071Z,18.22
2018-05-07T05:49:17.571Z,18.27
2018-05-07T05:51:46.012Z,18.41
2018-05-07T05:54:13.605Z,18.27
2018-05-07T05:56:41.285Z,18.39
2018-05-07T05:59:08.799Z,18.39
2018-05-07T06:01:36.349Z,18.27
2018-05-07T06:04:03.978Z,18.33
2018-05-07T06:06:31.447Z,18.56
2018-05-07T06:08:59.161Z,18.80
2018-05-07T06:11:26.642Z,18.52
2018-05-07T06:13:54.268Z,18.88
2018-05-07T06:16:21.778Z,19.00
2018-05-07T06:18:49.330Z,19.10
2018-05-07T06:21:16.895Z,19.30
2018-05-07T06:23:44.391Z,19.73
2018-05-07T06:26:11.967Z,19.60
2018-05-07T06:28:39.511Z,19.67
2018-05-07T06:31:07.008Z,20.08
2018-05-07T06:33:34.561Z,20.41
2018-05-07T06:36:02.111Z,20.88
2018-05-07T06:38:29.666Z,20.89
2018-05-07T06:40:57.222Z,21.23
2018-05-07T06:43:24.814Z,21.46
2018-05-07T06:45:52.376Z,21.31
2018-05-07T06:48:20.074Z,21.61
2018-05-07T06:50:47.651Z,21.86
2018-05-07T06:53:15.173Z,21.73
2018-05-07T06:55:42.678Z,21.81
2018-05-07T06:58:11.075Z,21.88
2018-05-07T07:00:38.836Z,21.79
2018-05-07T07:03:06.395Z,22.06
2018-05-07T07:05:34.036Z,22.10
2018-05-07T07:08:01.582Z,21.99
2018-05-07T07:10:29.128Z,22.23
2018-05-07T07:12:56.932Z,21.71
2018-05-07T07:15:24.522Z,21.86
2018-05-07T07:17:52.117Z,22.23
2018-05-07T07:20:19.639Z,22.53
2018-05-07T07:22:47.177Z,22.29
2018-05-07T07:25:14.687Z,22.65
2018-05-07T07:27:42.196Z,22.45
2018-05-07T07:30:09.774Z,22.28
2018-05-07T07:32:37.329Z,22.57
2018-05-07T07:35:04.925Z,22.60
2018-05-07T07:37:32.433Z,22.44
2018-05-07T07:39:59.963Z,22.93
2018-05-07T07:42:27.503Z,22.82
2018-05-07T07:44:55.041Z,22.68
2018-05-07T07:47:22.516Z,22.87
2018-05-07T07:49:50.072Z,23.01
2018-05-07T07:52:17.570Z,22.99
2018-05-07T07:54:45.143Z,23.33
2018-05-07T07:57:12.716Z,23.30
2018-05-07T07:59:40.290Z,23.24
2018-05-07T08:02:08.643Z,23.11
2018-05-07T08:04:36.288Z,23.49
2018-05-07T08:07:03.958Z,23.71
2018-05-07T08:09:31.463Z,23.72
2018-05-07T08:11:59.032Z,23.81
2018-05-07T08:14:26.569Z,23.96
2018-05-07T08:16:54.683Z,24.05
2018-05-07T08:19:22.200Z,24.25
2018-05-07T08:21:49.766Z,24.36
2018-05-07T08:24:17.398Z,24.27
2018-05-07T08:26:45.160Z,24.13
2018-05-07T08:29:12.684Z,24.07
2018-05-07T08:31:40.209Z,24.22
2018-05-07T08:34:07.718Z,24.20
2018-05-07T08:36:35.243Z,24.27
2018-05-07T08:39:02.827Z,24.39
2018-05-07T08:41:30.355Z,24.48
2018-05-07T08:43:58.000Z,24.34
2018-05-07T08:46:25.510Z,24.51
2018-05-07T08:48:53.232Z,24.46
2018-05-07T08:51:20.762Z,24.39
2018-05-07T08:53:48.294Z,24.51
2018-05-07T08:56:15.795Z,24.61
2018-05-07T08:58:43.579Z,24.58
2018-05-07T09:01:11.134Z,24.62
2018-05-07T09:03:38.683Z,24.59
2018-05-07T09:06:06.281Z,24.58
2018-05-07T09:08:33.998Z,24.50
2018-05-07T09:11:01.565Z,24.65
2018-05-07T09:13:29.081Z,24.89
2018-05-07T09:15:56.604Z,24.78
2018-05-07T09:18:24.221Z,24.73
2018-05-07T09:20:51.769Z,24.69
2018-05-07T09:23:19.500Z,24.56
2018-05-07T09:25:47.121Z,24.79
2018-05-07T09:28:14.633Z,24.80
2018-05-07T09:30:42.191Z,24.79
2018-05-07T09:33:09.704Z,24.82
2018-05-07T09:35:37.231Z,24.83
2018-05-07T09:38:04.750Z,24.73
2018-05-07T09:40:32.299Z,24.78
2018-05-07T09:42:59.980Z,24.78
2018-05-07T09:45:27.506Z,24.86
2018-05-07T09:47:55.017Z,24.87
2018-05-07T09:50:22.577Z,24.93
2018-05-07T09:52:50.699Z,24.98
2018-05-07T09:55:18.226Z,25.12
2018-05-07T09:57:57.885Z,25.20
2018-05-07T10:00:40.066Z,25.20
2018-05-07T10:03:07.749Z,25.23
2018-05-07T10:05:35.293Z,25.10
2018-05-07T10:08:02.824Z,25.16
2018-05-07T10:10:30.344Z,25.13
2018-05-07T10:12:57.903Z,25.19
2018-05-07T10:15:25.528Z,25.09
2018-05-07T10:17:53.066Z,25.08
2018-05-07T10:20:20.892Z,25.17
2018-05-07T10:22:48.500Z,25.28
2018-05-07T10:25:16.100Z,25.33
2018-05-07T10:27:43.626Z,25.45
2018-05-07T10:30:11.161Z,25.57
2018-05-07T10:32:38.688Z,25.68
2018-05-07T10:35:06.205Z,25.58
2018-05-07T10:37:33.843Z,25.58
2018-05-07T10:40:01.386Z,25.56
2018-05-07T10:42:28.926Z,25.73
2018-05-07T10:44:56.621Z,25.82
2018-05-07T10:47:24.322Z,25.91
2018-05-07T10:49:51.871Z,26.00
2018-05-07T10:52:19.379Z,26.12
2018-05-07T10:54:46.898Z,26.09
2018-05-07T10:57:14.483Z,26.13
2018-05-07T10:59:42.005Z,26.07
2018-05-07T11:02:09.556Z,26.19
2018-05-07T11:04:37.238Z,26.30
2018-05-07T11:07:04.754Z,26.40
2018-05-07T11:09:32.388Z,26.26
2018-05-07T11:12:00.003Z,26.41
2018-05-07T11:14:27.553Z,26.46
2018-05-07T11:16:55.276Z,26.54
2018-05-07T11:19:22.829Z,26.43
2018-05-07T11:21:50.362Z,26.43
2018-05-07T11:24:17.910Z,26.50
2018-05-07T11:26:45.471Z,26.62
2018-05-07T11:29:12.978Z,26.65
2018-05-07T11:31:40.559Z,26.72
2018-05-07T11:34:08.200Z,27.07
2018-05-07T11:36:35.738Z,27.74
2018-05-07T11:39:03.357Z,28.30
2018-05-07T11:41:31.097Z,28.56
2018-05-07T11:43:58.657Z,29.07
2018-05-07T11:46:26.460Z,29.28
2018-05-07T11:48:54.030Z,29.61
2018-05-07T11:51:21.584Z,29.80
2018-05-07T11:53:49.127Z,30.43
2018-05-07T11:56:16.644Z,30.67
2018-05-07T11:58:44.155Z,30.94
2018-05-07T12:01:11.707Z,31.25
2018-05-07T12:03:39.224Z,32.18
2018-05-07T12:06:06.849Z,33.23
2018-05-07T12:08:34.390Z,34.37
2018-05-07T12:11:01.919Z,35.80
2018-05-07T12:13:29.467Z,36.52
2018-05-07T12:15:56.998Z,37.34
2018-05-07T12:18:24.557Z,37.74
2018-05-07T12:20:52.106Z,38.62
2018-05-07T12:23:19.673Z,38.95
2018-05-07T12:25:47.213Z,39.83
2018-05-07T12:28:14.765Z,40.03
2018-05-07T12:30:42.816Z,40.09
2018-05-07T12:33:10.397Z,39.91
2018-05-07T12:35:38.029Z,40.33
2018-05-07T12:38:05.543Z,40.27
2018-05-07T12:40:33.059Z,40.80
2018-05-07T12:43:00.597Z,41.45
2018-05-07T12:45:28.114Z,40.69
2018-05-07T12:47:55.695Z,40.72
2018-05-07T12:50:23.227Z,41.56
2018-05-07T12:52:50.771Z,41.29
2018-05-07T12:55:18.296Z,41.84
2018-05-07T12:57:45.834Z,42.57
2018-05-07T13:00:13.453Z,43.26
2018-05-07T13:02:40.976Z,42.80
2018-05-07T13:05:08.544Z,42.90
2018-05-07T13:07:36.088Z,42.79
2018-05-07T13:10:03.655Z,42.81
2018-05-07T13:12:31.173Z,42.98
2018-05-07T13:14:58.703Z,43.34
2018-05-07T13:17:26.235Z,44.93
2018-05-07T13:19:53.727Z,46.82
2018-05-07T13:22:21.262Z,47.26
2018-05-07T13:24:48.783Z,45.79
2018-05-07T13:27:16.353Z,45.15
2018-05-07T13:29:43.898Z,44.72
2018-05-07T13:32:11.415Z,44.83
2018-05-07T13:34:39.099Z,44.86
2018-05-07T13:37:06.725Z,45.23
2018-05-07T13:39:34.259Z,44.99
2018-05-07T13:42:02.034Z,44.71
2018-05-07T13:44:30.350Z,45.12
2018-05-07T13:46:57.875Z,44.74
2018-05-07T13:49:26.157Z,45.28
2018-05-07T13:51:53.644Z,44.94
2018-05-07T13:57:17.537Z,44.88
2018-05-07T13:59:44.991Z,45.61
2018-05-07T14:02:12.429Z,46.19
2018-05-07T14:04:39.855Z,46.32
2018-05-07T14:07:07.291Z,44.89
2018-05-07T14:09:34.727Z,44.87
2018-05-07T14:12:02.323Z,45.39
2018-05-07T14:14:29.843Z,45.82
2018-05-07T14:16:57.271Z,46.17
2018-05-07T14:19:24.722Z,46.67
2018-05-07T14:21:52.192Z,46.83
2018-05-07T14:24:19.867Z,45.86
2018-05-07T14:26:47.337Z,45.28
2018-05-07T14:29:14.786Z,45.53
2018-05-07T14:31:42.230Z,45.24
2018-05-07T14:34:09.656Z,46.40
2018-05-07T14:36:37.117Z,46.24
2018-05-07T14:39:05.361Z,46.46
2018-05-07T14:41:32.794Z,46.30
2018-05-07T14:44:00.328Z,45.22
2018-05-07T14:46:27.772Z,44.88
2018-05-07T14:48:55.215Z,44.67
2018-05-07T14:51:22.734Z,44.72
2018-05-07T14:53:50.291Z,44.15
2018-05-07T14:56:17.756Z,44.22
2018-05-07T14:58:45.271Z,43.79
2018-05-07T15:01:12.775Z,43.41
2018-05-07T15:03:40.210Z,43.44
2018-05-07T15:06:07.851Z,43.94
2018-05-07T15:08:35.893Z,43.13
2018-05-07T15:11:03.337Z,41.72
2018-05-07T15:13:31.003Z,41.61
2018-05-07T15:15:58.437Z,42.97
2018-05-07T15:18:25.869Z,43.89
2018-05-07T15:20:53.311Z,42.51
2018-05-07T15:23:20.851Z,40.79
2018-05-07T15:25:48.233Z,39.96
2018-05-07T15:28:15.677Z,40.19
2018-05-07T15:30:43.105Z,40.86
2018-05-07T15:33:10.544Z,41.39
2018-05-07T15:35:37.990Z,41.68
2018-05-07T15:38:05.555Z,41.45
2018-05-07T15:40:33.024Z,41.94
2018-05-07T15:43:00.507Z,42.75
2018-05-07T15:45:27.929Z,43.07
2018-05-07T15:47:55.381Z,42.62
2018-05-07T15:50:22.829Z,42.55
2018-05-07T15:52:50.254Z,43.50
2018-05-07T15:55:17.693Z,44.10
2018-05-07T15:57:45.115Z,44.59
2018-05-07T16:00:12.547Z,44.42
2018-05-07T16:02:41.399Z,42.07
2018-05-07T16:05:08.845Z,42.08
2018-05-07T16:07:36.313Z,41.93
2018-05-07T16:10:03.743Z,42.50
2018-05-07T16:12:31.175Z,42.49
2018-05-07T16:14:58.836Z,41.48
2018-05-07T16:17:26.196Z,42.44
2018-05-07T16:19:53.618Z,42.61
2018-05-07T16:22:21.421Z,42.55
2018-05-07T16:24:48.742Z,43.08
2018-05-07T16:27:16.165Z,43.09
2018-05-07T16:29:44.273Z,42.42
2018-05-07T16:32:11.725Z,42.54
2018-05-07T16:34:39.155Z,42.63
2018-05-07T16:37:06.577Z,42.32
2018-05-07T16:39:34.051Z,41.39
2018-05-07T16:42:01.509Z,41.52
2018-05-07T16:44:29.766Z,41.13
2018-05-07T16:46:57.270Z,40.54
2018-05-07T16:49:24.744Z,39.29
2018-05-07T16:51:52.183Z,39.49
2018-05-07T16:54:19.639Z,39.90
2018-05-07T16:56:47.112Z,39.57
2018-05-07T16:59:14.545Z,39.34
2018-05-07T17:01:41.992Z,39.46
2018-05-07T17:04:09.456Z,38.92
2018-05-07T17:06:36.916Z,37.82
2018-05-07T17:09:04.388Z,37.70
2018-05-07T17:11:31.829Z,36.97
2018-05-07T17:13:59.260Z,37.50
2018-05-07T17:16:26.722Z,37.54
2018-05-07T17:18:54.219Z,36.63
2018-05-07T17:21:21.649Z,36.05
2018-05-07T17:23:49.087Z,35.77
2018-05-07T17:26:16.570Z,35.55
2018-05-07T17:28:44.046Z,35.61
2018-05-07T17:31:11.634Z,35.54
2018-05-07T17:33:39.232Z,34.67
2018-05-07T17:36:06.619Z,32.88
2018-05-07T17:38:34.072Z,31.71
2018-05-07T17:41:01.510Z,30.65
2018-05-07T17:43:28.975Z,29.71
2018-05-07T17:46:08.249Z,28.57
2018-05-07T17:48:47.472Z,27.69
2018-05-07T17:51:14.906Z,27.24
2018-05-07T17:53:42.395Z,26.85
2018-05-07T17:56:09.863Z,26.92
2018-05-07T17:58:37.346Z,26.64
2018-05-07T18:01:04.798Z,26.43
2018-05-07T18:03:32.248Z,26.24
2018-05-07T18:05:59.686Z,25.98
2018-05-07T18:08:27.113Z,25.68
2018-05-07T18:10:54.630Z,25.41
2018-05-07T18:13:22.124Z,25.26
2018-05-07T18:15:49.553Z,25.15
2018-05-07T18:18:16.983Z,25.03
2018-05-07T18:20:44.474Z,24.73
2018-05-07T18:23:11.946Z,24.75
2018-05-07T18:25:39.422Z,24.84
2018-05-07T18:28:06.857Z,24.81
2018-05-07T18:30:34.302Z,24.95
2018-05-07T18:33:02.166Z,24.78
2018-05-07T18:35:29.590Z,24.74
2018-05-07T18:37:57.201Z,24.63
2018-05-07T18:40:24.590Z,24.47
2018-05-07T18:42:52.026Z,24.40
2018-05-07T18:45:19.449Z,24.25
2018-05-07T18:47:46.882Z,24.08
2018-05-07T18:50:14.407Z,24.05
2018-05-07T18:52:41.974Z,23.90
2018-05-07T18:55:09.529Z,23.69
2018-05-07T18:57:37.069Z,23.40
2018-05-07T19:00:04.618Z,23.13
2018-05-07T19:02:32.094Z,22.97
2018-05-07T19:04:59.529Z,22.75
2018-05-07T19:07:27.127Z,22.67
2018-05-07T19:09:54.641Z,22.52
2018-05-07T19:12:22.106Z,22.52
2018-05-07T19:14:49.577Z,22.61
2018-05-07T19:17:17.220Z,22.63
2018-05-07T19:19:44.709Z,22.66
2018-05-07T19:22:12.167Z,22.67
2018-05-07T19:24:39.601Z,22.59
2018-05-07T19:27:07.045Z,22.52
2018-05-07T19:29:34.489Z,22.46
2018-05-07T19:32:01.973Z,22.41
2018-05-07T19:34:29.428Z,22.35
2018-05-07T19:36:56.866Z,22.36
2018-05-07T19:39:24.339Z,22.23
2018-05-07T19:41:51.843Z,22.02
2018-05-07T19:44:19.396Z,21.65
2018-05-07T19:46:46.938Z,21.30
2018-05-07T19:49:14.395Z,21.05
2018-05-07T19:51:42.488Z,20.78
2018-05-07T19:54:10.069Z,20.50
2018-05-07T19:56:37.499Z,20.32
2018-05-07T19:59:04.929Z,20.08
2018-05-07T20:01:32.364Z,19.91
2018-05-07T20:03:59.815Z,19.74
2018-05-07T20:06:27.618Z,19.56
2018-05-07T20:08:55.140Z,19.42
2018-05-07T20:11:23.292Z,19.21
2018-05-07T20:13:50.791Z,19.09
2018-05-07T20:16:18.432Z,18.97
2018-05-07T20:18:45.903Z,18.88
2018-05-07T20:21:13.477Z,18.74
2018-05-07T20:23:40.920Z,18.64
2018-05-07T20:26:08.375Z,18.53
2018-05-07T20:28:35.803Z,18.45
2018-05-07T20:31:03.318Z,18.33
2018-05-07T20:33:30.787Z,18.36
2018-05-07T20:35:58.226Z,18.63
2018-05-07T20:38:25.789Z,18.99
2018-05-07T20:40:53.242Z,19.40
2018-05-07T20:43:20.831Z,19.77
2018-05-07T20:45:48.335Z,19.77
2018-05-07T20:48:15.999Z,19.87
2018-05-07T20:50:43.378Z,19.92
2018-05-07T20:53:10.836Z,19.83
2018-05-07T20:55:38.282Z,19.55
2018-05-07T20:58:05.719Z,19.07
2018-05-07T21:00:33.179Z,18.67
2018-05-07T21:03:00.623Z,18.36
2018-05-07T21:05:28.202Z,18.05
2018-05-07T21:07:55.649Z,17.81
2018-05-07T21:10:23.124Z,17.60
2018-05-07T21:12:50.571Z,17.45
2018-05-07T21:15:18.006Z,17.37
2018-05-07T21:17:45.531Z,17.27
2018-05-07T21:20:13.059Z,17.16
2018-05-07T21:22:40.484Z,17.10
2018-05-07T21:25:07.936Z,16.99
2018-05-07T21:27:35.428Z,16.90
2018-05-07T21:30:02.909Z,16.73
2018-05-07T21:32:30.349Z,16.71
2018-05-07T21:34:57.783Z,16.64
2018-05-07T21:37:25.281Z,16.55
2018-05-07T21:39:52.731Z,16.49
2018-05-07T21:42:20.175Z,16.47
2018-05-07T21:44:47.653Z,16.45
2018-05-07T21:47:15.110Z,16.42
2018-05-07T21:49:42.572Z,16.36
2018-05-07T21:52:10.006Z,16.25
2018-05-07T21:54:37.491Z,16.20
2018-05-07T21:57:04.892Z,16.22
2018-05-07T21:59:32.395Z,16.13
2018-05-07T22:01:59.980Z,16.02
2018-05-07T22:04:27.430Z,15.94
2018-05-07T22:06:55.026Z,16.45
2018-05-07T22:09:22.588Z,16.55
2018-05-07T22:11:50.096Z,16.50
2018-05-07T22:14:18.145Z,16.36
2018-05-07T22:16:45.605Z,16.22
2018-05-07T22:19:13.038Z,16.10
2018-05-07T22:21:40.487Z,16.00
2018-05-07T22:24:07.984Z,15.91
2018-05-07T22:26:35.457Z,15.88
2018-05-07T22:29:02.901Z,15.84
2018-05-07T22:31:30.378Z,15.80
2018-05-07T22:33:57.906Z,15.73
2018-05-07T22:36:25.515Z,15.68
2018-05-07T22:38:53.022Z,15.56
2018-05-07T22:41:20.446Z,15.36
2018-05-07T22:43:47.897Z,15.29
2018-05-07T22:46:15.397Z,15.16
2018-05-07T22:48:42.828Z,15.14
2018-05-07T22:51:10.305Z,15.12
2018-05-07T22:53:37.749Z,15.00
2018-05-07T22:56:05.177Z,14.96
2018-05-07T22:58:32.688Z,14.89
2018-05-07T23:01:00.124Z,14.84
2018-05-07T23:03:27.557Z,14.81
2018-05-07T23:05:55.020Z,14.74
2018-05-07T23:08:22.505Z,14.71
2018-05-07T23:10:49.940Z,14.62
2018-05-07T23:13:17.364Z,14.59
2018-05-07T23:15:44.806Z,14.48
2018-05-07T23:18:12.243Z,14.44
2018-05-07T23:20:39.680Z,14.34
2018-05-07T23:23:07.126Z,14.24
2018-05-07T23:25:34.551Z,14.26
2018-05-07T23:28:01.995Z,14.34
2018-05-07T23:30:29.448Z,14.35
2018-05-07T23:32:56.889Z,14.36
2018-05-07T23:35:24.498Z,14.33
2018-05-07T23:37:52.017Z,14.33
2018-05-07T23:40:19.561Z,14.38
2018-05-07T23:42:47.006Z,14.41
2018-05-07T23:45:14.599Z,14.40
2018-05-07T23:47:42.042Z,14.41
2018-05-07T23:50:09.496Z,14.41
2018-05-07T23:52:36.943Z,14.43
2018-05-07T23:55:04.365Z,14.53
2018-05-07T23:57:31.794Z,14.56
2018-05-07T23:59:59.250Z,14.50
